Time;durP1;ratioP1;P1;durP2;ratioP2;P2;SDS_P1;SDS_P2;PMS_P1;PMS_P2;Temp;Humidity;BMP_temperature;BMP_pressure;BME280_temperature;BME280_humidity;BME280_pressure;Samples;Min_cycle;Max_cycle;Signal;HPM_P1;HPM_P2
2023/02/01 00:00:12;;;;;;;;;;;;;;;3.95;100.00;97959.00;67808;1277;1016667;-59
2023/02/01 00:03:34;;;;;;;;;;;;;;;3.88;100.00;97965.39;67868;1277;1016462;-58
2023/02/01 00:06:37;;;;;;;;;;;;;;;3.92;100.00;97962.09;67872;1277;1018055;-58
2023/02/01 00:09:39;;;;;;;;;;;;;;;3.92;100.00;97961.77;67833;1277;1016462;-58
2023/02/01 00:12:42;;;;;;;;;;;;;;;4.03;100.00;97950.34;65335;1277;6368193;-59
2023/02/01 00:15:44;;;;;;;;;;;;;;;4.06;100.00;97943.06;67886;1277;1016104;-58
2023/02/01 00:18:47;;;;;;;;;;;;;;;4.11;100.00;97946.11;67873;1277;1016449;-58
2023/02/01 00:21:49;;;;;;;;;;;;;;;4.07;100.00;97935.62;67879;1277;1016568;-58
2023/02/01 00:25:00;;;;;;;;;;;;;;;4.09;100.00;97937.42;67814;1277;1018513;-58
2023/02/01 00:28:02;;;;;;;;;;;;;;;4.09;100.00;97934.99;67845;1277;1015899;-58
2023/02/01 00:31:04;;;;;;;;;;;;;;;4.13;100.00;97924.39;67880;1277;1016217;-58
2023/02/01 00:34:08;;;;;;;;;;;;;;;4.13;100.00;97904.15;67892;1277;1016252;-58
2023/02/01 00:37:10;;;;;;;;;;;;;;;4.20;100.00;97935.14;67854;1277;1016016;-58
2023/02/01 00:40:13;;;;;;;;;;;;;;;4.22;100.00;97928.83;67897;1277;1016304;-58
2023/02/01 00:43:15;;;;;;;;;;;;;;;4.20;100.00;97930.66;67872;1277;1016462;-58
2023/02/01 00:46:18;;;;;;;;;;;;;;;4.22;100.00;97927.27;67861;1277;1016058;-58
2023/02/01 00:49:20;;;;;;;;;;;;;;;4.23;100.00;97934.65;67867;1277;1016383;-58
2023/02/01 00:52:23;;;;;;;;;;;;;;;4.21;100.00;97961.24;67870;1277;1017877;-58
2023/02/01 00:55:25;;;;;;;;;;;;;;;4.27;100.00;97970.26;67887;1277;1016151;-58
2023/02/01 00:58:27;;;;;;;;;;;;;;;4.22;100.00;97987.29;67881;1277;1015932;-58
2023/02/01 01:01:30;;;;;;;;;;;;;;;3.91;100.00;98037.54;67879;1277;1016468;-58
2023/02/01 01:04:32;;;;;;;;;;;;;;;3.18;100.00;98076.23;67843;1277;1016494;-58
2023/02/01 01:07:35;;;;;;;;;;;;;;;2.87;100.00;98084.11;67822;1277;1018026;-58
2023/02/01 01:10:37;;;;;;;;;;;;;;;2.80;100.00;98059.35;67875;1277;1016442;-58
2023/02/01 01:13:39;;;;;;;;;;;;;;;2.75;100.00;98040.58;67890;1277;1016442;-59
2023/02/01 01:16:42;;;;;;;;;;;;;;;2.83;100.00;98026.92;67882;1277;1016079;-58
2023/02/01 01:19:44;;;;;;;;;;;;;;;2.90;100.00;98019.21;67790;1277;1016215;-58
2023/02/01 01:22:47;;;;;;;;;;;;;;;2.86;100.00;98007.97;67816;1277;1016237;-58
2023/02/01 01:25:49;;;;;;;;;;;;;;;2.89;100.00;98011.81;67861;1277;1016068;-58
2023/02/01 01:28:54;;;;;;;;;;;;;;;2.96;100.00;98013.08;67865;1277;1016245;-58
2023/02/01 01:31:57;;;;;;;;;;;;;;;2.89;100.00;98017.84;67854;1277;1016481;-58
2023/02/01 01:34:59;;;;;;;;;;;;;;;2.89;100.00;98026.70;67849;1277;1016298;-58
2023/02/01 01:38:02;;;;;;;;;;;;;;;2.91;100.00;98023.84;67851;1277;1018817;-58
2023/02/01 01:41:04;;;;;;;;;;;;;;;2.92;100.00;98034.33;67901;1277;1015928;-58
2023/02/01 01:44:07;;;;;;;;;;;;;;;2.91;100.00;98040.75;67906;1277;1016458;-58
2023/02/01 01:47:10;;;;;;;;;;;;;;;2.97;100.00;98051.73;67829;1277;1016452;-58
2023/02/01 01:50:12;;;;;;;;;;;;;;;3.07;100.00;98041.09;67870;1277;1018771;-58
2023/02/01 01:53:14;;;;;;;;;;;;;;;3.02;100.00;98040.64;67890;1278;1016466;-58
2023/02/01 01:56:17;;;;;;;;;;;;;;;3.05;100.00;98046.04;67872;1277;1016813;-58
2023/02/01 01:59:19;;;;;;;;;;;;;;;3.14;100.00;98044.48;67827;1277;1016231;-59
2023/02/01 02:02:22;;;;;;;;;;;;;;;3.02;100.00;98043.58;67832;1277;1016465;-58
2023/02/01 02:05:24;;;;;;;;;;;;;;;2.85;100.00;98047.72;67862;1278;1019406;-58
2023/02/01 02:08:27;;;;;;;;;;;;;;;2.73;100.00;98056.52;67914;1278;1016497;-58
2023/02/01 02:11:29;;;;;;;;;;;;;;;2.64;100.00;98057.79;67882;1278;1016436;-58
2023/02/01 02:14:32;;;;;;;;;;;;;;;2.67;100.00;98058.16;67881;1277;1016321;-59
2023/02/01 02:17:36;;;;;;;;;;;;;;;2.66;100.00;98063.88;67880;1277;1016753;-58
2023/02/01 02:20:38;;;;;;;;;;;;;;;2.62;100.00;98065.78;67832;1278;1016390;-58
2023/02/01 02:23:40;;;;;;;;;;;;;;;2.70;100.00;98070.96;67825;1278;1017555;-58
2023/02/01 02:26:43;;;;;;;;;;;;;;;2.80;100.00;98081.63;67883;1277;1016184;-58
2023/02/01 02:29:45;;;;;;;;;;;;;;;2.80;100.00;98071.27;67871;1277;1016434;-59
2023/02/01 02:32:48;;;;;;;;;;;;;;;2.68;100.00;98076.92;67887;1278;1016190;-59
2023/02/01 02:35:50;;;;;;;;;;;;;;;2.68;100.00;98080.22;67842;1277;1016494;-59
2023/02/01 02:38:53;;;;;;;;;;;;;;;2.70;100.00;98084.61;67851;1278;1016436;-58
2023/02/01 02:48:38;;;;;;;;;;;;;;;2.73;100.00;98081.73;67885;1277;1016470;-59
2023/02/01 02:55:00;;;;;;;;;;;;;;;2.82;100.00;98074.98;67840;1278;1016416;-59
2023/02/01 03:04:43;;;;;;;;;;;;;;;2.87;100.00;98087.05;67871;1278;1016124;-59
2023/02/01 03:07:46;;;;;;;;;;;;;;;2.92;100.00;98086.65;67880;1277;1017259;-59
2023/02/01 03:10:48;;;;;;;;;;;;;;;3.05;100.00;98090.25;67871;1277;1016429;-59
2023/02/01 03:13:50;;;;;;;;;;;;;;;3.05;100.00;98084.55;67854;1278;1018002;-59
2023/02/01 03:16:53;;;;;;;;;;;;;;;3.06;100.00;98085.88;67827;1278;1016521;-59
2023/02/01 03:19:55;;;;;;;;;;;;;;;3.08;100.00;98086.14;67890;1277;1016242;-59
2023/02/01 03:22:58;;;;;;;;;;;;;;;3.04;100.00;98093.59;67917;1277;1016431;-59
2023/02/01 03:26:00;;;;;;;;;;;;;;;3.07;100.00;98097.10;67875;1278;1016381;-59
2023/02/01 03:29:03;;;;;;;;;;;;;;;3.09;100.00;98100.83;67829;1278;1016494;-58
2023/02/01 03:32:05;;;;;;;;;;;;;;;3.10;100.00;98105.61;67831;1278;1017219;-59
2023/02/01 03:35:08;;;;;;;;;;;;;;;3.16;100.00;98100.84;67865;1278;1015659;-59
2023/02/01 03:38:10;;;;;;;;;;;;;;;3.16;100.00;98101.55;67881;1278;1016371;-58
2023/02/01 03:41:13;;;;;;;;;;;;;;;3.09;100.00;98100.11;67857;1278;1016828;-59
2023/02/01 03:44:15;;;;;;;;;;;;;;;3.10;100.00;98106.10;67868;1278;1016416;-59
2023/02/01 03:47:19;;;;;;;;;;;;;;;3.07;100.00;98106.92;67875;1277;1015851;-59
2023/02/01 03:50:23;;;;;;;;;;;;;;;3.08;100.00;98107.43;67865;1277;1019015;-59
2023/02/01 03:53:26;;;;;;;;;;;;;;;3.08;100.00;98115.19;67875;1278;1016483;-59
2023/02/01 03:56:28;;;;;;;;;;;;;;;3.13;100.00;98104.28;67849;1278;1016464;-59
2023/02/01 03:59:31;;;;;;;;;;;;;;;3.18;100.00;98105.45;67826;1277;1016230;-58
2023/02/01 04:02:33;;;;;;;;;;;;;;;3.17;100.00;98107.02;67867;1277;1016394;-59
2023/02/01 04:05:36;;;;;;;;;;;;;;;3.20;100.00;98109.84;67865;1277;1016345;-59
2023/02/01 04:08:38;;;;;;;;;;;;;;;3.24;100.00;98118.33;67884;1277;1017056;-59
2023/02/01 04:11:41;;;;;;;;;;;;;;;3.30;100.00;98109.60;67845;1277;1016528;-59
2023/02/01 04:14:43;;;;;;;;;;;;;;;3.32;100.00;98113.15;67844;1277;1016009;-59
2023/02/01 04:17:46;;;;;;;;;;;;;;;3.32;100.00;98110.55;67863;1277;1016428;-59
2023/02/01 04:20:48;;;;;;;;;;;;;;;3.36;100.00;98105.36;67886;1277;1016441;-59
2023/02/01 04:23:50;;;;;;;;;;;;;;;3.37;100.00;98112.21;67840;1277;1016275;-59
2023/02/01 04:26:53;;;;;;;;;;;;;;;3.51;100.00;98108.02;67829;1277;1016402;-59
2023/02/01 04:29:55;;;;;;;;;;;;;;;3.55;100.00;98110.07;67824;1277;1019253;-59
2023/02/01 04:32:57;;;;;;;;;;;;;;;3.54;100.00;98107.86;67842;1277;1016560;-59
2023/02/01 04:36:00;;;;;;;;;;;;;;;3.52;100.00;98112.77;67873;1277;1016406;-59
2023/02/01 04:39:02;;;;;;;;;;;;;;;3.55;100.00;98114.56;67849;1277;1018582;-59
2023/02/01 04:42:05;;;;;;;;;;;;;;;3.54;100.00;98116.36;67819;1277;1016333;-59
2023/02/01 04:45:08;;;;;;;;;;;;;;;3.55;100.00;98120.29;67861;1278;1016517;-59
2023/02/01 04:48:11;;;;;;;;;;;;;;;3.63;100.00;98125.11;67861;1277;1015971;-59
2023/02/01 04:51:14;;;;;;;;;;;;;;;3.66;100.00;98127.56;67859;1277;1016320;-59
2023/02/01 04:54:17;;;;;;;;;;;;;;;3.59;100.00;98123.58;67846;1277;1016103;-59
2023/02/01 04:57:19;;;;;;;;;;;;;;;3.56;100.00;98124.88;67850;1277;1016308;-59
2023/02/01 05:00:22;;;;;;;;;;;;;;;3.58;100.00;98124.11;67904;1277;1016414;-58
2023/02/01 05:03:25;;;;;;;;;;;;;;;3.61;100.00;98131.23;67869;1277;1016503;-59
2023/02/01 05:06:27;;;;;;;;;;;;;;;3.68;100.00;98127.33;67816;1277;1016410;-59
2023/02/01 05:09:30;;;;;;;;;;;;;;;3.70;100.00;98126.70;67872;1277;1016197;-59
2023/02/01 05:15:52;;;;;;;;;;;;;;;3.65;100.00;98130.71;67854;1277;1016414;-59
2023/02/01 05:18:55;;;;;;;;;;;;;;;3.67;100.00;98127.35;67841;1277;1017856;-59
2023/02/01 05:21:57;;;;;;;;;;;;;;;3.71;100.00;98125.65;67831;1277;1016459;-59
2023/02/01 05:24:59;;;;;;;;;;;;;;;3.68;100.00;98121.42;67842;1277;1016093;-59
2023/02/01 05:28:02;;;;;;;;;;;;;;;3.72;100.00;98121.80;67888;1277;1016326;-59
2023/02/01 05:31:04;;;;;;;;;;;;;;;3.72;100.00;98124.54;67864;1277;1016480;-59
2023/02/01 05:34:07;;;;;;;;;;;;;;;3.69;100.00;98125.19;67863;1277;1016404;-59
2023/02/01 05:37:09;;;;;;;;;;;;;;;3.79;100.00;98130.80;67818;1277;1016089;-59
2023/02/01 05:40:12;;;;;;;;;;;;;;;3.65;100.00;98120.54;67864;1278;1016551;-59
2023/02/01 05:43:14;;;;;;;;;;;;;;;3.70;100.00;98117.71;67861;1278;1016239;-59
2023/02/01 05:46:17;;;;;;;;;;;;;;;3.64;100.00;98126.45;67860;1277;1016205;-59
2023/02/01 05:49:19;;;;;;;;;;;;;;;3.74;100.00;98127.23;67837;1278;1016416;-59
2023/02/01 05:52:21;;;;;;;;;;;;;;;3.77;100.00;98129.48;67817;1278;1016433;-59
2023/02/01 05:55:24;;;;;;;;;;;;;;;3.79;100.00;98122.86;67846;1277;1016515;-59
2023/02/01 05:58:26;;;;;;;;;;;;;;;3.75;100.00;98117.83;67890;1278;1016286;-59
2023/02/01 06:01:29;;;;;;;;;;;;;;;3.80;100.00;98114.67;67863;1277;1016161;-59
2023/02/01 06:04:31;;;;;;;;;;;;;;;3.82;100.00;98112.69;67834;1277;1016250;-59
2023/02/01 06:07:33;;;;;;;;;;;;;;;3.77;100.00;98117.41;67843;1278;1017434;-59
2023/02/01 06:10:36;;;;;;;;;;;;;;;3.67;100.00;98111.10;67848;1278;1016511;-59
2023/02/01 06:13:39;;;;;;;;;;;;;;;3.71;100.00;98112.84;67897;1278;1016448;-59
2023/02/01 06:16:41;;;;;;;;;;;;;;;3.70;100.00;98118.09;67840;1278;1016706;-59
2023/02/01 06:19:44;;;;;;;;;;;;;;;3.72;100.00;98116.40;67832;1278;1015972;-59
2023/02/01 06:22:47;;;;;;;;;;;;;;;3.74;100.00;98116.15;67860;1278;1020034;-59
2023/02/01 06:25:49;;;;;;;;;;;;;;;3.71;100.00;98119.92;67841;1278;1016413;-59
2023/02/01 06:28:52;;;;;;;;;;;;;;;3.62;100.00;98119.08;67846;1277;1016982;-59
2023/02/01 06:31:54;;;;;;;;;;;;;;;3.59;100.00;98115.08;67882;1278;1016339;-59
2023/02/01 06:34:57;;;;;;;;;;;;;;;3.65;100.00;98116.74;67865;1277;1016339;-59
2023/02/01 06:37:59;;;;;;;;;;;;;;;3.61;100.00;98119.30;67889;1277;1016415;-59
2023/02/01 06:41:02;;;;;;;;;;;;;;;3.64;100.00;98114.85;67825;1277;1016537;-59
2023/02/01 06:44:04;;;;;;;;;;;;;;;3.67;100.00;98118.04;67866;1277;1019403;-59
2023/02/01 06:47:06;;;;;;;;;;;;;;;3.71;100.00;98121.14;67869;1278;1016452;-59
2023/02/01 06:50:09;;;;;;;;;;;;;;;3.64;100.00;98121.61;67891;1277;1017005;-59
2023/02/01 06:53:11;;;;;;;;;;;;;;;3.62;100.00;98118.91;67754;1278;1016141;-59
2023/02/01 06:56:14;;;;;;;;;;;;;;;3.63;100.00;98118.87;67856;1278;1016419;-59
2023/02/01 06:59:16;;;;;;;;;;;;;;;3.68;100.00;98120.94;67874;1278;1017707;-59
2023/02/01 07:02:19;;;;;;;;;;;;;;;3.70;100.00;98123.27;67904;1278;1016507;-59
2023/02/01 07:05:21;;;;;;;;;;;;;;;3.72;100.00;98115.02;67824;1278;1016812;-59
2023/02/01 07:08:24;;;;;;;;;;;;;;;3.72;100.00;98121.27;67821;1278;1016477;-59
2023/02/01 07:11:27;;;;;;;;;;;;;;;3.72;100.00;98115.56;67831;1278;1016458;-59
2023/02/01 07:14:30;;;;;;;;;;;;;;;3.76;100.00;98111.06;67825;1278;1016148;-59
2023/02/01 07:17:32;;;;;;;;;;;;;;;3.75;100.00;98108.33;67875;1277;1016338;-59
2023/02/01 07:20:35;;;;;;;;;;;;;;;3.77;100.00;98107.88;67850;1278;1016443;-59
2023/02/01 07:23:37;;;;;;;;;;;;;;;3.78;100.00;98109.20;67848;1277;1016245;-59
2023/02/01 07:26:40;;;;;;;;;;;;;;;3.83;100.00;98109.52;67861;1277;1015983;-59
2023/02/01 07:29:44;;;;;;;;;;;;;;;3.82;100.00;98110.95;67821;1278;1016016;-59
2023/02/01 07:32:46;;;;;;;;;;;;;;;3.87;100.00;98111.45;67826;1278;1016818;-59
2023/02/01 07:35:49;;;;;;;;;;;;;;;3.90;100.00;98104.71;67853;1278;1016424;-59
2023/02/01 07:38:51;;;;;;;;;;;;;;;3.91;100.00;98106.39;67875;1278;1017908;-59
2023/02/01 07:41:54;;;;;;;;;;;;;;;3.97;100.00;98110.98;67838;1278;1016427;-59
2023/02/01 07:44:57;;;;;;;;;;;;;;;3.94;100.00;98113.52;67797;1278;1016545;-59
2023/02/01 07:47:59;;;;;;;;;;;;;;;3.96;100.00;98123.80;67882;1278;1016699;-59
2023/02/01 07:51:01;;;;;;;;;;;;;;;3.96;100.00;98118.14;67829;1278;1016173;-59
2023/02/01 07:54:04;;;;;;;;;;;;;;;4.01;100.00;98120.46;67795;1278;1016488;-59
2023/02/01 07:57:08;;;;;;;;;;;;;;;4.09;100.00;98119.61;67791;1278;1016326;-59
2023/02/01 08:03:31;;;;;;;;;;;;;;;4.12;100.00;98118.05;67868;1278;1015994;-59
2023/02/01 08:06:33;;;;;;;;;;;;;;;4.12;100.00;98114.43;67897;1278;1016567;-59
2023/02/01 08:09:36;;;;;;;;;;;;;;;4.25;100.00;98117.64;67858;1278;1016501;-59
2023/02/01 08:12:38;;;;;;;;;;;;;;;4.26;100.00;98113.10;67844;1278;1016470;-59
2023/02/01 08:15:40;;;;;;;;;;;;;;;4.29;100.00;98112.26;67834;1278;1016375;-59
2023/02/01 08:18:43;;;;;;;;;;;;;;;4.33;100.00;98111.22;67846;1278;1016215;-59
2023/02/01 08:21:48;;;;;;;;;;;;;;;4.28;100.00;98110.09;67853;1278;1016478;-59
2023/02/01 08:24:51;;;;;;;;;;;;;;;4.28;100.00;98110.42;67818;1278;1016507;-59
2023/02/01 08:27:54;;;;;;;;;;;;;;;4.41;100.00;98113.65;67851;1277;1019288;-59
2023/02/01 08:30:56;;;;;;;;;;;;;;;4.36;100.00;98111.77;67845;1278;1016512;-59
2023/02/01 08:33:59;;;;;;;;;;;;;;;4.48;100.00;98105.67;67872;1277;1016493;-59
2023/02/01 08:37:01;;;;;;;;;;;;;;;4.46;100.00;98104.54;67874;1278;1016454;-59
2023/02/01 08:40:04;;;;;;;;;;;;;;;4.58;100.00;98105.38;67884;1278;1016266;-59
2023/02/01 08:43:06;;;;;;;;;;;;;;;4.63;100.00;98107.58;67831;1277;1017437;-59
2023/02/01 08:46:09;;;;;;;;;;;;;;;4.61;100.00;98095.56;67807;1278;1016495;-59
2023/02/01 08:49:11;;;;;;;;;;;;;;;4.59;100.00;98102.40;67872;1277;1016490;-59
2023/02/01 08:52:13;;;;;;;;;;;;;;;4.58;100.00;98106.27;67877;1278;1015842;-59
2023/02/01 08:55:16;;;;;;;;;;;;;;;4.58;100.00;98109.73;67858;1278;1016740;-59
2023/02/01 08:58:19;;;;;;;;;;;;;;;4.69;100.00;98105.70;67788;1277;1016350;-59
2023/02/01 09:01:22;;;;;;;;;;;;;;;4.70;100.00;98113.48;67897;1277;1016071;-59
2023/02/01 09:04:24;;;;;;;;;;;;;;;4.76;100.00;98096.89;67876;1277;1016333;-59
2023/02/01 09:07:26;;;;;;;;;;;;;;;4.75;100.00;98100.07;67823;1278;1016397;-59
2023/02/01 09:10:29;;;;;;;;;;;;;;;4.81;100.00;98100.46;67854;1277;1018662;-59
2023/02/01 09:13:31;;;;;;;;;;;;;;;4.89;100.00;98102.65;67830;1277;1016341;-59
2023/02/01 09:16:34;;;;;;;;;;;;;;;4.96;100.00;98101.13;67900;1277;1019314;-59
2023/02/01 09:19:36;;;;;;;;;;;;;;;5.06;100.00;98094.73;67864;1278;1016439;-60
2023/02/01 09:22:38;;;;;;;;;;;;;;;5.05;100.00;98098.24;67846;1277;1016649;-59
2023/02/01 09:25:41;;;;;;;;;;;;;;;5.08;100.00;98097.93;67823;1277;1015872;-59
2023/02/01 09:28:43;;;;;;;;;;;;;;;5.14;100.00;98095.90;67838;1277;1016272;-59
2023/02/01 09:31:46;;;;;;;;;;;;;;;5.11;100.00;98095.88;67843;1278;1018229;-59
2023/02/01 09:34:48;;;;;;;;;;;;;;;5.07;100.00;98084.61;67839;1277;1016504;-59
2023/02/01 09:37:51;;;;;;;;;;;;;;;5.03;100.00;98080.87;67844;1277;1016411;-59
2023/02/01 09:40:53;;;;;;;;;;;;;;;4.98;100.00;98080.41;67794;1277;1016575;-59
2023/02/01 09:43:56;;;;;;;;;;;;;;;4.84;100.00;98076.39;67826;1277;1018785;-59
2023/02/01 09:46:59;;;;;;;;;;;;;;;4.79;100.00;98073.00;67873;1278;1015817;-59
2023/02/01 09:50:01;;;;;;;;;;;;;;;4.74;100.00;98068.92;67812;1277;1017175;-59
2023/02/01 09:53:04;;;;;;;;;;;;;;;4.74;100.00;98062.69;67797;1278;1016374;-59
2023/02/01 09:56:06;;;;;;;;;;;;;;;4.73;100.00;98066.20;67826;1277;1016382;-59
2023/02/01 09:59:09;;;;;;;;;;;;;;;4.73;100.00;98063.95;67840;1278;1016453;-59
2023/02/01 10:02:11;;;;;;;;;;;;;;;4.87;100.00;98060.66;67824;1277;1016457;-59
2023/02/01 10:05:14;;;;;;;;;;;;;;;5.07;100.00;98058.45;67827;1277;1016370;-59
2023/02/01 10:08:16;;;;;;;;;;;;;;;5.30;100.00;98061.26;67827;1277;1016421;-59
2023/02/01 10:11:18;;;;;;;;;;;;;;;5.55;100.00;98057.55;67891;1277;1016818;-59
2023/02/01 10:14:21;;;;;;;;;;;;;;;5.75;100.00;98059.42;67874;1277;1016274;-59
2023/02/01 10:17:23;;;;;;;;;;;;;;;5.71;100.00;98056.35;67836;1277;1016640;-59
2023/02/01 10:20:26;;;;;;;;;;;;;;;5.50;100.00;98059.20;67821;1277;1016455;-59
2023/02/01 10:23:29;;;;;;;;;;;;;;;5.34;100.00;98056.73;67869;1277;1018062;-59
2023/02/01 10:26:31;;;;;;;;;;;;;;;5.22;100.00;98065.16;67818;1278;1015957;-59
2023/02/01 10:29:34;;;;;;;;;;;;;;;5.21;100.00;98061.39;67805;1278;1017212;-59
2023/02/01 10:32:36;;;;;;;;;;;;;;;5.18;100.00;98054.41;67835;1277;1016417;-59
2023/02/01 10:35:41;;;;;;;;;;;;;;;5.15;100.00;98057.17;67893;1277;1016358;-59
2023/02/01 10:38:43;;;;;;;;;;;;;;;5.24;100.00;98058.67;67794;1278;1018595;-59
2023/02/01 10:41:46;;;;;;;;;;;;;;;5.32;100.00;98050.22;67805;1277;1015959;-59
2023/02/01 10:44:48;;;;;;;;;;;;;;;5.39;100.00;98042.59;67845;1277;1016196;-59
2023/02/01 10:47:51;;;;;;;;;;;;;;;5.34;100.00;98049.45;67862;1277;1016416;-59
2023/02/01 10:50:53;;;;;;;;;;;;;;;5.49;100.00;98031.17;67850;1277;1016132;-59
2023/02/01 10:53:55;;;;;;;;;;;;;;;5.60;100.00;98037.36;67859;1278;1016614;-59
2023/02/01 10:56:58;;;;;;;;;;;;;;;5.69;100.00;98042.41;67831;1277;1016437;-59
2023/02/01 11:00:01;;;;;;;;;;;;;;;5.73;100.00;98036.97;67818;1277;1016304;-59
2023/02/01 11:03:03;;;;;;;;;;;;;;;5.94;100.00;98031.57;67859;1277;1016803;-59
2023/02/01 11:06:06;;;;;;;;;;;;;;;6.04;100.00;98018.52;67880;1277;1016417;-59
2023/02/01 11:09:09;;;;;;;;;;;;;;;6.09;100.00;98023.13;67803;1277;1016078;-59
2023/02/01 11:12:11;;;;;;;;;;;;;;;6.07;100.00;98007.75;67838;1277;1017561;-59
2023/02/01 11:15:14;;;;;;;;;;;;;;;6.14;100.00;98007.02;67863;1277;1016253;-59
2023/02/01 11:18:16;;;;;;;;;;;;;;;6.09;100.00;98012.35;67790;1277;1016463;-59
2023/02/01 11:21:19;;;;;;;;;;;;;;;6.03;100.00;98012.88;67800;1277;1016387;-59
2023/02/01 11:24:21;;;;;;;;;;;;;;;5.97;100.00;98002.59;67888;1277;1016023;-59
2023/02/01 11:27:24;;;;;;;;;;;;;;;5.96;100.00;98016.35;67872;1277;1016538;-59
2023/02/01 11:30:26;;;;;;;;;;;;;;;5.94;100.00;98018.15;67860;1277;1016432;-59
2023/02/01 11:33:30;;;;;;;;;;;;;;;5.94;100.00;98012.98;67838;1277;1018058;-59
2023/02/01 11:36:32;;;;;;;;;;;;;;;6.03;100.00;98006.08;67887;1277;1016007;-59
2023/02/01 11:39:35;;;;;;;;;;;;;;;5.99;100.00;98003.86;67848;1277;1016531;-59
2023/02/01 11:42:37;;;;;;;;;;;;;;;5.98;100.00;98008.79;67824;1277;1017104;-59
2023/02/01 11:45:39;;;;;;;;;;;;;;;5.99;100.00;98003.36;67880;1277;1016403;-59
2023/02/01 11:48:42;;;;;;;;;;;;;;;6.01;100.00;97995.93;67844;1277;1016471;-59
2023/02/01 11:51:44;;;;;;;;;;;;;;;5.96;100.00;98001.77;67861;1277;1016458;-59
2023/02/01 11:54:47;;;;;;;;;;;;;;;5.90;100.00;97998.59;67867;1277;1018316;-59
2023/02/01 11:57:49;;;;;;;;;;;;;;;5.97;100.00;97991.64;67834;1277;1015751;-59
2023/02/01 12:00:52;;;;;;;;;;;;;;;6.01;100.00;97985.55;67826;1277;1015888;-59
2023/02/01 12:03:54;;;;;;;;;;;;;;;6.01;100.00;97989.35;67856;1277;1015892;-59
2023/02/01 12:06:57;;;;;;;;;;;;;;;6.02;100.00;97973.33;67895;1278;1016503;-59
2023/02/01 12:10:00;;;;;;;;;;;;;;;5.98;100.00;97971.95;67791;1277;1016401;-59
2023/02/01 12:13:03;;;;;;;;;;;;;;;5.91;100.00;97978.92;65249;1277;6371959;-59
2023/02/01 12:16:06;;;;;;;;;;;;;;;5.96;100.00;97978.33;67820;1277;1016461;-59
2023/02/01 12:19:08;;;;;;;;;;;;;;;6.07;100.00;97971.32;67824;1277;1016425;-59
2023/02/01 12:22:10;;;;;;;;;;;;;;;6.13;100.00;97965.59;67867;1277;1016454;-59
2023/02/01 12:25:13;;;;;;;;;;;;;;;6.06;100.00;97967.71;67858;1277;1016279;-59
2023/02/01 12:28:15;;;;;;;;;;;;;;;6.00;100.00;97946.71;67840;1277;1016195;-59
2023/02/01 12:31:18;;;;;;;;;;;;;;;5.88;100.00;97950.85;67827;1277;1016046;-59
2023/02/01 12:34:21;;;;;;;;;;;;;;;5.69;100.00;97969.58;67823;1277;1016200;-59
2023/02/01 12:37:24;;;;;;;;;;;;;;;5.41;100.00;97959.63;67800;1277;1017672;-59
2023/02/01 12:40:26;;;;;;;;;;;;;;;5.09;100.00;97970.84;67835;1277;1015882;-59
2023/02/01 12:43:28;;;;;;;;;;;;;;;4.77;100.00;97969.53;67792;1277;1016485;-59
2023/02/01 12:46:32;;;;;;;;;;;;;;;4.72;100.00;97968.59;67831;1277;1017228;-59
2023/02/01 12:49:35;;;;;;;;;;;;;;;4.84;100.00;97962.58;67841;1277;1016490;-59
2023/02/01 12:52:37;;;;;;;;;;;;;;;4.90;100.00;97969.04;67871;1277;1016400;-59
2023/02/01 12:55:40;;;;;;;;;;;;;;;4.97;100.00;97969.02;67861;1277;1016296;-59
2023/02/01 12:58:42;;;;;;;;;;;;;;;5.05;100.00;97964.46;67817;1277;1016829;-59
2023/02/01 13:01:45;;;;;;;;;;;;;;;5.12;100.00;97966.87;67880;1277;1016481;-59
2023/02/01 13:04:47;;;;;;;;;;;;;;;5.17;100.00;97969.73;67896;1277;1018981;-59
2023/02/01 13:07:50;;;;;;;;;;;;;;;5.11;100.00;97972.98;67885;1277;1016454;-59
2023/02/01 13:10:52;;;;;;;;;;;;;;;5.11;100.00;97970.05;67838;1277;1016066;-59
2023/02/01 13:13:55;;;;;;;;;;;;;;;5.13;100.00;97969.23;67817;1277;1016607;-59
2023/02/01 13:16:57;;;;;;;;;;;;;;;5.13;100.00;97974.29;67879;1277;1016195;-59
2023/02/01 13:20:00;;;;;;;;;;;;;;;5.12;100.00;97973.11;67855;1277;1016568;-59
2023/02/01 13:23:02;;;;;;;;;;;;;;;5.16;100.00;97968.60;67831;1277;1015822;-59
2023/02/01 13:26:04;;;;;;;;;;;;;;;5.22;100.00;97970.70;67850;1277;1016361;-59
2023/02/01 13:29:07;;;;;;;;;;;;;;;5.21;100.00;97952.05;67875;1277;1016441;-60
2023/02/01 13:32:09;;;;;;;;;;;;;;;5.19;100.00;97957.97;67852;1277;1016283;-59
2023/02/01 13:35:12;;;;;;;;;;;;;;;5.17;100.00;97958.64;67884;1277;1016451;-59
2023/02/01 13:38:14;;;;;;;;;;;;;;;5.17;100.00;97938.19;67812;1277;1016367;-59
2023/02/01 13:41:16;;;;;;;;;;;;;;;5.16;100.00;97952.63;67824;1277;1016587;-60
2023/02/01 13:44:19;;;;;;;;;;;;;;;5.17;100.00;97955.16;67827;1277;1015810;-59
2023/02/01 13:47:21;;;;;;;;;;;;;;;5.12;100.00;97948.34;67883;1277;1016472;-59
2023/02/01 13:50:24;;;;;;;;;;;;;;;5.16;100.00;97948.08;67871;1277;1016503;-60
2023/02/01 13:53:26;;;;;;;;;;;;;;;5.25;100.00;97945.25;67841;1277;1016535;-59
2023/02/01 13:56:29;;;;;;;;;;;;;;;5.26;100.00;97941.33;67827;1277;1016552;-59
2023/02/01 13:59:31;;;;;;;;;;;;;;;5.19;100.00;97939.28;67883;1277;1016780;-59
2023/02/01 14:02:34;;;;;;;;;;;;;;;5.19;100.00;97926.60;67867;1277;1016860;-59
2023/02/01 14:05:36;;;;;;;;;;;;;;;5.15;100.00;97928.77;67850;1277;1016360;-59
2023/02/01 14:08:38;;;;;;;;;;;;;;;5.04;100.00;97920.84;67805;1277;1015971;-59
2023/02/01 14:11:41;;;;;;;;;;;;;;;5.05;100.00;97919.95;67834;1277;1018901;-59
2023/02/01 14:14:44;;;;;;;;;;;;;;;4.99;100.00;97920.77;67872;1277;1016498;-59
2023/02/01 14:17:46;;;;;;;;;;;;;;;5.00;100.00;97925.04;67822;1277;1017853;-59
2023/02/01 14:20:51;;;;;;;;;;;;;;;5.02;100.00;97918.50;67849;1277;1015995;-59
2023/02/01 14:23:53;;;;;;;;;;;;;;;4.95;100.00;97922.52;67873;1277;1018754;-59
2023/02/01 14:26:55;;;;;;;;;;;;;;;4.91;100.00;97928.48;67857;1277;1016277;-59
2023/02/01 14:29:59;;;;;;;;;;;;;;;4.91;100.00;97919.30;67863;1277;1016387;-59
2023/02/01 14:33:01;;;;;;;;;;;;;;;4.96;100.00;97917.47;67861;1277;1016412;-59
2023/02/01 14:36:04;;;;;;;;;;;;;;;5.08;100.00;97917.54;67846;1277;1016317;-59
2023/02/01 14:39:08;;;;;;;;;;;;;;;5.04;100.00;97915.63;67830;1277;1018196;-59
2023/02/01 14:42:11;;;;;;;;;;;;;;;4.96;100.00;97922.81;67838;1277;1016513;-59
2023/02/01 14:45:13;;;;;;;;;;;;;;;4.90;100.00;97926.27;67856;1277;1016221;-59
2023/02/01 14:48:16;;;;;;;;;;;;;;;4.73;100.00;97931.99;67876;1277;1020045;-59
2023/02/01 14:51:19;;;;;;;;;;;;;;;4.47;100.00;97928.27;67820;1277;1016431;-59
2023/02/01 14:54:22;;;;;;;;;;;;;;;4.34;100.00;97937.74;67874;1277;1016442;-59
2023/02/01 14:57:24;;;;;;;;;;;;;;;4.28;100.00;97935.08;67856;1277;1016280;-59
2023/02/01 15:00:27;;;;;;;;;;;;;;;4.21;100.00;97934.94;67842;1277;1016030;-59
2023/02/01 15:03:29;;;;;;;;;;;;;;;4.01;100.00;97932.45;67833;1277;1016512;-59
2023/02/01 15:06:31;;;;;;;;;;;;;;;3.87;100.00;97930.17;67892;1277;1015981;-59
2023/02/01 15:09:34;;;;;;;;;;;;;;;3.83;100.00;97925.84;67879;1277;1016487;-59
2023/02/01 15:12:36;;;;;;;;;;;;;;;4.03;100.00;97924.21;67810;1277;1018252;-59
2023/02/01 15:15:39;;;;;;;;;;;;;;;4.04;100.00;97923.29;67840;1275;1016961;-59
2023/02/01 15:18:41;;;;;;;;;;;;;;;3.99;100.00;97928.73;67833;1277;1016074;-60
2023/02/01 15:21:44;;;;;;;;;;;;;;;3.92;100.00;97940.98;67876;1277;1016665;-59
2023/02/01 15:24:46;;;;;;;;;;;;;;;3.86;100.00;97930.73;67884;1277;1016375;-59
2023/02/01 15:27:49;;;;;;;;;;;;;;;3.78;100.00;97940.30;67889;1277;1018058;-59
2023/02/01 15:30:51;;;;;;;;;;;;;;;3.73;100.00;97934.61;67843;1277;1017103;-59
2023/02/01 15:33:54;;;;;;;;;;;;;;;3.81;100.00;97951.21;67826;1277;1016405;-59
2023/02/01 15:36:56;;;;;;;;;;;;;;;3.74;100.00;97950.82;67861;1277;1016461;-59
2023/02/01 15:39:59;;;;;;;;;;;;;;;3.64;100.00;97949.73;67833;1277;1016484;-59
2023/02/01 15:43:01;;;;;;;;;;;;;;;3.60;100.00;97962.20;67855;1277;1016307;-59
2023/02/01 15:46:05;;;;;;;;;;;;;;;3.47;100.00;97964.86;67815;1277;1016078;-59
2023/02/01 15:49:07;;;;;;;;;;;;;;;3.41;100.00;97957.03;67845;1277;1016497;-59